sensor_id;sensor_type;location;lat;lon;timestamp;temperature;humidity
59301;DHT22;45073;52.740;6.784;2023-08-01T00:02:18;16.90;99.90
59301;DHT22;45073;52.740;6.784;2023-08-01T00:04:44;17.00;99.90
59301;DHT22;45073;52.740;6.784;2023-08-01T00:07:09;16.90;99.90
59301;DHT22;45073;52.740;6.784;2023-08-01T00:09:35;16.90;99.90
59301;DHT22;45073;52.740;6.784;2023-08-01T00:12:00;16.90;99.90
59301;DHT22;45073;52.740;6.784;2023-08-01T00:14:26;16.90;99.90
59301;DHT22;45073;52.740;6.784;2023-08-01T00:16:52;16.90;99.90
59301;DHT22;45073;52.740;6.784;2023-08-01T00:19:18;16.80;99.90
59301;DHT22;45073;52.740;6.784;2023-08-01T00:21:44;16.80;99.90
59301;DHT22;45073;52.740;6.784;2023-08-01T00:24:09;16.90;99.90
59301;DHT22;45073;52.740;6.784;2023-08-01T00:26:35;16.90;99.90
59301;DHT22;45073;52.740;6.784;2023-08-01T00:29:01;16.80;99.90
59301;DHT22;45073;52.740;6.784;2023-08-01T00:31:26;16.80;99.90
59301;DHT22;45073;52.740;6.784;2023-08-01T00:33:52;16.90;99.90
59301;DHT22;45073;52.740;6.784;2023-08-01T00:36:18;16.90;99.90
59301;DHT22;45073;52.740;6.784;2023-08-01T00:38:43;16.90;99.90
59301;DHT22;45073;52.740;6.784;2023-08-01T00:41:09;16.90;99.90
59301;DHT22;45073;52.740;6.784;2023-08-01T00:43:35;16.90;99.90
59301;DHT22;45073;52.740;6.784;2023-08-01T00:46:03;16.90;99.90
59301;DHT22;45073;52.740;6.784;2023-08-01T00:48:30;16.80;99.90
59301;DHT22;45073;52.740;6.784;2023-08-01T00:50:59;16.80;99.90
59301;DHT22;45073;52.740;6.784;2023-08-01T00:53:25;16.80;99.90
59301;DHT22;45073;52.740;6.784;2023-08-01T00:55:54;16.80;99.90
59301;DHT22;45073;52.740;6.784;2023-08-01T00:58:20;16.70;99.90
59301;DHT22;45073;52.740;6.784;2023-08-01T01:00:46;16.70;99.90
59301;DHT22;45073;52.740;6.784;2023-08-01T01:03:12;16.80;99.90
59301;DHT22;45073;52.740;6.784;2023-08-01T01:05:42;16.80;99.90
59301;DHT22;45073;52.740;6.784;2023-08-01T01:08:08;16.70;99.90
59301;DHT22;45073;52.740;6.784;2023-08-01T01:10:34;16.70;99.90
59301;DHT22;45073;52.740;6.784;2023-08-01T01:12:59;16.80;99.90
59301;DHT22;45073;52.740;6.784;2023-08-01T01:15:25;16.70;99.90
59301;DHT22;45073;52.740;6.784;2023-08-01T01:17:51;16.80;99.90
59301;DHT22;45073;52.740;6.784;2023-08-01T01:20:23;16.70;99.90
59301;DHT22;45073;52.740;6.784;2023-08-01T01:22:53;16.80;99.90
59301;DHT22;45073;52.740;6.784;2023-08-01T01:25:20;16.70;99.90
59301;DHT22;45073;52.740;6.784;2023-08-01T01:27:49;16.70;99.90
59301;DHT22;45073;52.740;6.784;2023-08-01T01:30:15;16.60;99.90
59301;DHT22;45073;52.740;6.784;2023-08-01T01:32:41;16.60;99.90
59301;DHT22;45073;52.740;6.784;2023-08-01T01:35:07;16.70;99.90
59301;DHT22;45073;52.740;6.784;2023-08-01T01:37:33;16.70;99.90
59301;DHT22;45073;52.740;6.784;2023-08-01T01:40:00;16.70;99.90
59301;DHT22;45073;52.740;6.784;2023-08-01T01:42:25;16.70;99.90
59301;DHT22;45073;52.740;6.784;2023-08-01T01:44:51;16.60;99.90
59301;DHT22;45073;52.740;6.784;2023-08-01T01:47:17;16.60;99.90
59301;DHT22;45073;52.740;6.784;2023-08-01T01:49:43;16.60;99.90
59301;DHT22;45073;52.740;6.784;2023-08-01T01:52:08;16.60;99.90
59301;DHT22;45073;52.740;6.784;2023-08-01T01:54:34;16.60;99.90
59301;DHT22;45073;52.740;6.784;2023-08-01T01:56:59;16.60;99.90
59301;DHT22;45073;52.740;6.784;2023-08-01T01:59:25;16.70;99.90
59301;DHT22;45073;52.740;6.784;2023-08-01T02:01:50;16.60;99.90
59301;DHT22;45073;52.740;6.784;2023-08-01T02:04:16;16.60;99.90
59301;DHT22;45073;52.740;6.784;2023-08-01T02:06:42;16.60;99.90
59301;DHT22;45073;52.740;6.784;2023-08-01T02:09:07;16.50;99.90
59301;DHT22;45073;52.740;6.784;2023-08-01T02:11:33;16.50;99.90
59301;DHT22;45073;52.740;6.784;2023-08-01T02:13:59;16.50;99.90
59301;DHT22;45073;52.740;6.784;2023-08-01T02:16:24;16.50;99.90
59301;DHT22;45073;52.740;6.784;2023-08-01T02:18:50;16.50;99.90
59301;DHT22;45073;52.740;6.784;2023-08-01T02:21:15;16.50;99.90
59301;DHT22;45073;52.740;6.784;2023-08-01T02:23:41;16.40;99.90
59301;DHT22;45073;52.740;6.784;2023-08-01T02:26:06;16.40;99.90
59301;DHT22;45073;52.740;6.784;2023-08-01T02:28:33;16.40;99.90
59301;DHT22;45073;52.740;6.784;2023-08-01T02:30:59;16.30;99.90
59301;DHT22;45073;52.740;6.784;2023-08-01T02:33:24;16.30;99.90
59301;DHT22;45073;52.740;6.784;2023-08-01T02:35:50;16.30;99.90
59301;DHT22;45073;52.740;6.784;2023-08-01T02:38:15;16.20;99.90
59301;DHT22;45073;52.740;6.784;2023-08-01T02:40:41;16.20;99.90
59301;DHT22;45073;52.740;6.784;2023-08-01T02:43:07;16.20;99.90
59301;DHT22;45073;52.740;6.784;2023-08-01T02:45:32;16.20;99.90
59301;DHT22;45073;52.740;6.784;2023-08-01T02:47:58;16.20;99.90
59301;DHT22;45073;52.740;6.784;2023-08-01T02:50:23;16.10;99.90
59301;DHT22;45073;52.740;6.784;2023-08-01T02:52:49;16.10;99.90
59301;DHT22;45073;52.740;6.784;2023-08-01T02:55:14;16.10;99.90
59301;DHT22;45073;52.740;6.784;2023-08-01T02:57:40;16.10;99.90
59301;DHT22;45073;52.740;6.784;2023-08-01T03:00:06;16.10;99.90
59301;DHT22;45073;52.740;6.784;2023-08-01T03:02:39;16.10;99.90
59301;DHT22;45073;52.740;6.784;2023-08-01T03:05:06;16.00;99.90
59301;DHT22;45073;52.740;6.784;2023-08-01T03:07:33;16.10;99.90
59301;DHT22;45073;52.740;6.784;2023-08-01T03:09:58;16.10;99.90
59301;DHT22;45073;52.740;6.784;2023-08-01T03:12:24;16.00;99.90
59301;DHT22;45073;52.740;6.784;2023-08-01T03:14:50;16.00;99.90
59301;DHT22;45073;52.740;6.784;2023-08-01T03:17:15;16.00;99.90
59301;DHT22;45073;52.740;6.784;2023-08-01T03:19:42;16.00;99.90
59301;DHT22;45073;52.740;6.784;2023-08-01T03:22:08;16.00;99.90
59301;DHT22;45073;52.740;6.784;2023-08-01T03:24:34;16.00;99.90
59301;DHT22;45073;52.740;6.784;2023-08-01T03:27:00;15.90;99.90
59301;DHT22;45073;52.740;6.784;2023-08-01T03:29:26;15.90;99.90
59301;DHT22;45073;52.740;6.784;2023-08-01T03:31:52;15.90;99.90
59301;DHT22;45073;52.740;6.784;2023-08-01T03:34:18;15.90;99.90
59301;DHT22;45073;52.740;6.784;2023-08-01T03:36:44;15.90;99.90
59301;DHT22;45073;52.740;6.784;2023-08-01T03:39:09;15.90;99.90
59301;DHT22;45073;52.740;6.784;2023-08-01T03:41:36;15.80;99.90
59301;DHT22;45073;52.740;6.784;2023-08-01T03:44:02;15.90;99.90
59301;DHT22;45073;52.740;6.784;2023-08-01T03:46:28;15.80;99.90
59301;DHT22;45073;52.740;6.784;2023-08-01T03:48:54;15.80;99.90
59301;DHT22;45073;52.740;6.784;2023-08-01T03:51:19;15.70;99.90
59301;DHT22;45073;52.740;6.784;2023-08-01T03:53:46;15.70;99.90
59301;DHT22;45073;52.740;6.784;2023-08-01T03:56:12;15.70;99.90
59301;DHT22;45073;52.740;6.784;2023-08-01T03:58:37;15.70;99.90
59301;DHT22;45073;52.740;6.784;2023-08-01T04:01:03;15.70;99.90
59301;DHT22;45073;52.740;6.784;2023-08-01T04:03:28;15.70;99.90
59301;DHT22;45073;52.740;6.784;2023-08-01T04:05:54;15.70;99.90
59301;DHT22;45073;52.740;6.784;2023-08-01T04:08:20;15.70;99.90
59301;DHT22;45073;52.740;6.784;2023-08-01T04:10:45;15.80;99.90
59301;DHT22;45073;52.740;6.784;2023-08-01T04:13:11;15.80;99.90
59301;DHT22;45073;52.740;6.784;2023-08-01T04:15:37;15.70;99.90
59301;DHT22;45073;52.740;6.784;2023-08-01T04:18:02;15.70;99.90
59301;DHT22;45073;52.740;6.784;2023-08-01T04:20:28;15.70;99.90
59301;DHT22;45073;52.740;6.784;2023-08-01T04:22:53;15.70;99.90
59301;DHT22;45073;52.740;6.784;2023-08-01T04:25:19;15.70;99.90
59301;DHT22;45073;52.740;6.784;2023-08-01T04:27:45;15.70;99.90
59301;DHT22;45073;52.740;6.784;2023-08-01T04:30:11;15.70;99.90
59301;DHT22;45073;52.740;6.784;2023-08-01T04:32:37;15.70;99.90
59301;DHT22;45073;52.740;6.784;2023-08-01T04:35:03;15.70;99.90
59301;DHT22;45073;52.740;6.784;2023-08-01T04:37:28;15.60;99.90
59301;DHT22;45073;52.740;6.784;2023-08-01T04:39:54;15.60;99.90
59301;DHT22;45073;52.740;6.784;2023-08-01T04:42:19;15.50;99.90
59301;DHT22;45073;52.740;6.784;2023-08-01T04:44:45;15.60;99.90
59301;DHT22;45073;52.740;6.784;2023-08-01T04:47:10;15.60;99.90
59301;DHT22;45073;52.740;6.784;2023-08-01T04:49:36;15.50;99.90
59301;DHT22;45073;52.740;6.784;2023-08-01T04:52:02;15.50;99.90
59301;DHT22;45073;52.740;6.784;2023-08-01T04:54:28;15.50;99.90
59301;DHT22;45073;52.740;6.784;2023-08-01T04:56:53;15.60;99.90
59301;DHT22;45073;52.740;6.784;2023-08-01T04:59:19;15.50;99.90
59301;DHT22;45073;52.740;6.784;2023-08-01T05:01:45;15.50;99.90
59301;DHT22;45073;52.740;6.784;2023-08-01T05:04:11;15.50;99.90
59301;DHT22;45073;52.740;6.784;2023-08-01T05:06:36;15.50;99.90
59301;DHT22;45073;52.740;6.784;2023-08-01T05:09:02;15.60;99.90
59301;DHT22;45073;52.740;6.784;2023-08-01T05:11:28;15.60;99.90
59301;DHT22;45073;52.740;6.784;2023-08-01T05:13:54;15.60;99.90
59301;DHT22;45073;52.740;6.784;2023-08-01T05:16:19;15.70;99.90
59301;DHT22;45073;52.740;6.784;2023-08-01T05:18:45;15.70;99.90
59301;DHT22;45073;52.740;6.784;2023-08-01T05:21:10;15.80;99.90
59301;DHT22;45073;52.740;6.784;2023-08-01T05:23:36;15.70;99.90
59301;DHT22;45073;52.740;6.784;2023-08-01T05:26:02;15.70;99.90
59301;DHT22;45073;52.740;6.784;2023-08-01T05:28:28;15.80;99.90
59301;DHT22;45073;52.740;6.784;2023-08-01T05:30:53;15.80;99.90
59301;DHT22;45073;52.740;6.784;2023-08-01T05:33:19;15.80;99.90
59301;DHT22;45073;52.740;6.784;2023-08-01T05:35:44;15.80;99.90
59301;DHT22;45073;52.740;6.784;2023-08-01T05:38:10;15.70;99.90
59301;DHT22;45073;52.740;6.784;2023-08-01T05:40:45;15.80;99.90
59301;DHT22;45073;52.740;6.784;2023-08-01T05:43:14;15.80;99.90
59301;DHT22;45073;52.740;6.784;2023-08-01T05:45:39;15.70;99.90
59301;DHT22;45073;52.740;6.784;2023-08-01T05:48:05;15.70;99.90
59301;DHT22;45073;52.740;6.784;2023-08-01T05:50:31;15.70;99.90
59301;DHT22;45073;52.740;6.784;2023-08-01T05:52:56;15.70;99.90
59301;DHT22;45073;52.740;6.784;2023-08-01T05:55:22;15.70;99.90
59301;DHT22;45073;52.740;6.784;2023-08-01T05:57:47;15.70;99.90
59301;DHT22;45073;52.740;6.784;2023-08-01T06:00:18;15.60;99.90
59301;DHT22;45073;52.740;6.784;2023-08-01T06:02:47;15.60;99.90
59301;DHT22;45073;52.740;6.784;2023-08-01T06:05:13;15.70;99.90
59301;DHT22;45073;52.740;6.784;2023-08-01T06:07:38;15.70;99.90
59301;DHT22;45073;52.740;6.784;2023-08-01T06:10:05;15.80;99.90
59301;DHT22;45073;52.740;6.784;2023-08-01T06:12:30;15.70;99.90
59301;DHT22;45073;52.740;6.784;2023-08-01T06:14:56;15.70;99.90
59301;DHT22;45073;52.740;6.784;2023-08-01T06:17:22;15.70;99.90
59301;DHT22;45073;52.740;6.784;2023-08-01T06:19:47;15.60;99.90
59301;DHT22;45073;52.740;6.784;2023-08-01T06:22:15;15.60;99.90
59301;DHT22;45073;52.740;6.784;2023-08-01T06:24:41;15.50;99.90
59301;DHT22;45073;52.740;6.784;2023-08-01T06:27:06;15.60;99.90
59301;DHT22;45073;52.740;6.784;2023-08-01T06:29:32;15.50;99.90
59301;DHT22;45073;52.740;6.784;2023-08-01T06:31:57;15.60;99.90
59301;DHT22;45073;52.740;6.784;2023-08-01T06:34:23;15.60;99.90
59301;DHT22;45073;52.740;6.784;2023-08-01T06:36:50;15.60;99.90
59301;DHT22;45073;52.740;6.784;2023-08-01T06:39:16;15.70;99.90
59301;DHT22;45073;52.740;6.784;2023-08-01T06:41:41;15.70;99.90
59301;DHT22;45073;52.740;6.784;2023-08-01T06:44:07;15.70;99.90
59301;DHT22;45073;52.740;6.784;2023-08-01T06:46:32;15.70;99.90
59301;DHT22;45073;52.740;6.784;2023-08-01T06:48:58;15.70;99.90
59301;DHT22;45073;52.740;6.784;2023-08-01T06:51:23;15.90;99.90
59301;DHT22;45073;52.740;6.784;2023-08-01T06:53:49;16.00;99.90
59301;DHT22;45073;52.740;6.784;2023-08-01T06:56:14;16.00;99.90
59301;DHT22;45073;52.740;6.784;2023-08-01T06:58:40;16.00;99.90
59301;DHT22;45073;52.740;6.784;2023-08-01T07:01:06;16.00;99.90
59301;DHT22;45073;52.740;6.784;2023-08-01T07:03:31;16.00;99.90
59301;DHT22;45073;52.740;6.784;2023-08-01T07:05:57;16.00;99.90
59301;DHT22;45073;52.740;6.784;2023-08-01T07:08:23;16.20;99.90
59301;DHT22;45073;52.740;6.784;2023-08-01T07:10:48;16.20;99.90
59301;DHT22;45073;52.740;6.784;2023-08-01T07:13:14;16.20;99.90
59301;DHT22;45073;52.740;6.784;2023-08-01T07:15:41;16.30;99.90
59301;DHT22;45073;52.740;6.784;2023-08-01T07:18:07;16.30;99.90
59301;DHT22;45073;52.740;6.784;2023-08-01T07:20:33;16.30;99.90
59301;DHT22;45073;52.740;6.784;2023-08-01T07:22:58;16.30;99.90
59301;DHT22;45073;52.740;6.784;2023-08-01T07:25:24;16.30;99.90
59301;DHT22;45073;52.740;6.784;2023-08-01T07:27:51;16.40;99.90
59301;DHT22;45073;52.740;6.784;2023-08-01T07:30:17;16.50;99.90
59301;DHT22;45073;52.740;6.784;2023-08-01T07:32:42;16.50;99.90
59301;DHT22;45073;52.740;6.784;2023-08-01T07:35:09;16.50;99.90
59301;DHT22;45073;52.740;6.784;2023-08-01T07:37:35;16.60;99.90
59301;DHT22;45073;52.740;6.784;2023-08-01T07:40:04;16.60;99.90
59301;DHT22;45073;52.740;6.784;2023-08-01T07:42:30;16.70;99.90
59301;DHT22;45073;52.740;6.784;2023-08-01T07:44:56;16.70;99.90
59301;DHT22;45073;52.740;6.784;2023-08-01T07:47:22;16.70;99.90
59301;DHT22;45073;52.740;6.784;2023-08-01T07:49:49;16.60;99.90
59301;DHT22;45073;52.740;6.784;2023-08-01T07:52:15;16.70;99.90
59301;DHT22;45073;52.740;6.784;2023-08-01T07:54:41;16.80;99.90
59301;DHT22;45073;52.740;6.784;2023-08-01T07:57:06;16.80;99.90
59301;DHT22;45073;52.740;6.784;2023-08-01T07:59:32;16.80;99.90
59301;DHT22;45073;52.740;6.784;2023-08-01T08:01:57;16.80;99.90
59301;DHT22;45073;52.740;6.784;2023-08-01T08:04:23;16.80;99.90
59301;DHT22;45073;52.740;6.784;2023-08-01T08:06:48;16.80;99.90
59301;DHT22;45073;52.740;6.784;2023-08-01T08:09:14;16.80;99.90
59301;DHT22;45073;52.740;6.784;2023-08-01T08:11:40;16.80;99.90
59301;DHT22;45073;52.740;6.784;2023-08-01T08:14:05;16.70;99.90
59301;DHT22;45073;52.740;6.784;2023-08-01T08:16:31;16.60;99.90
59301;DHT22;45073;52.740;6.784;2023-08-01T08:18:56;16.60;99.90
59301;DHT22;45073;52.740;6.784;2023-08-01T08:21:22;16.60;99.90
59301;DHT22;45073;52.740;6.784;2023-08-01T08:23:48;16.50;99.90
59301;DHT22;45073;52.740;6.784;2023-08-01T08:26:13;16.60;99.90
59301;DHT22;45073;52.740;6.784;2023-08-01T08:28:39;16.60;99.90
59301;DHT22;45073;52.740;6.784;2023-08-01T08:31:07;16.60;99.90
59301;DHT22;45073;52.740;6.784;2023-08-01T08:33:33;16.50;99.90
59301;DHT22;45073;52.740;6.784;2023-08-01T08:35:59;16.50;99.90
59301;DHT22;45073;52.740;6.784;2023-08-01T08:41:25;16.50;99.90
59301;DHT22;45073;52.740;6.784;2023-08-01T08:43:56;16.50;99.90
59301;DHT22;45073;52.740;6.784;2023-08-01T08:46:27;16.40;99.90
59301;DHT22;45073;52.740;6.784;2023-08-01T08:48:53;16.40;99.90
59301;DHT22;45073;52.740;6.784;2023-08-01T08:51:20;16.40;99.90
59301;DHT22;45073;52.740;6.784;2023-08-01T08:53:47;16.40;99.90
59301;DHT22;45073;52.740;6.784;2023-08-01T08:56:14;16.40;99.90
59301;DHT22;45073;52.740;6.784;2023-08-01T08:58:41;16.50;99.90
59301;DHT22;45073;52.740;6.784;2023-08-01T09:01:08;16.60;99.90
59301;DHT22;45073;52.740;6.784;2023-08-01T09:03:34;16.60;99.90
59301;DHT22;45073;52.740;6.784;2023-08-01T09:08:39;16.80;99.90
59301;DHT22;45073;52.740;6.784;2023-08-01T09:11:05;16.80;99.90
59301;DHT22;45073;52.740;6.784;2023-08-01T09:13:31;16.80;99.90
59301;DHT22;45073;52.740;6.784;2023-08-01T09:15:57;16.90;99.90
59301;DHT22;45073;52.740;6.784;2023-08-01T09:18:25;16.90;99.90
59301;DHT22;45073;52.740;6.784;2023-08-01T09:20:51;16.90;99.90
59301;DHT22;45073;52.740;6.784;2023-08-01T09:23:17;16.90;99.90
59301;DHT22;45073;52.740;6.784;2023-08-01T09:25:43;16.90;99.90
59301;DHT22;45073;52.740;6.784;2023-08-01T09:28:20;16.90;99.90
59301;DHT22;45073;52.740;6.784;2023-08-01T09:30:50;16.80;99.90
59301;DHT22;45073;52.740;6.784;2023-08-01T09:33:17;16.70;99.90
59301;DHT22;45073;52.740;6.784;2023-08-01T09:35:42;16.60;99.90
59301;DHT22;45073;52.740;6.784;2023-08-01T09:38:12;16.50;99.90
59301;DHT22;45073;52.740;6.784;2023-08-01T09:40:39;16.50;99.90
59301;DHT22;45073;52.740;6.784;2023-08-01T09:43:06;16.40;99.90
59301;DHT22;45073;52.740;6.784;2023-08-01T09:45:31;16.40;99.90
59301;DHT22;45073;52.740;6.784;2023-08-01T09:47:57;16.40;99.90
59301;DHT22;45073;52.740;6.784;2023-08-01T09:50:24;16.40;99.90
59301;DHT22;45073;52.740;6.784;2023-08-01T09:52:49;16.30;99.90
59301;DHT22;45073;52.740;6.784;2023-08-01T09:55:24;16.20;99.90
59301;DHT22;45073;52.740;6.784;2023-08-01T09:57:51;16.20;99.90
59301;DHT22;45073;52.740;6.784;2023-08-01T10:00:18;16.20;99.90
59301;DHT22;45073;52.740;6.784;2023-08-01T10:02:44;16.20;99.90
59301;DHT22;45073;52.740;6.784;2023-08-01T10:05:11;16.20;99.90
59301;DHT22;45073;52.740;6.784;2023-08-01T10:07:38;16.10;99.90
59301;DHT22;45073;52.740;6.784;2023-08-01T10:10:06;16.20;99.90
59301;DHT22;45073;52.740;6.784;2023-08-01T10:12:32;16.20;99.90
59301;DHT22;45073;52.740;6.784;2023-08-01T10:14:59;16.30;99.90
59301;DHT22;45073;52.740;6.784;2023-08-01T10:17:25;16.40;99.90
59301;DHT22;45073;52.740;6.784;2023-08-01T10:19:53;16.40;99.90
59301;DHT22;45073;52.740;6.784;2023-08-01T10:22:21;16.50;99.90
59301;DHT22;45073;52.740;6.784;2023-08-01T10:24:48;16.60;99.90
59301;DHT22;45073;52.740;6.784;2023-08-01T10:27:21;16.60;99.90
59301;DHT22;45073;52.740;6.784;2023-08-01T10:29:57;16.70;99.90
59301;DHT22;45073;52.740;6.784;2023-08-01T10:32:32;16.80;99.90
59301;DHT22;45073;52.740;6.784;2023-08-01T10:35:02;16.90;99.90
59301;DHT22;45073;52.740;6.784;2023-08-01T10:37:39;17.00;99.90
59301;DHT22;45073;52.740;6.784;2023-08-01T10:40:06;17.00;99.90
59301;DHT22;45073;52.740;6.784;2023-08-01T10:42:42;17.10;99.90
59301;DHT22;45073;52.740;6.784;2023-08-01T10:45:20;17.00;99.90
59301;DHT22;45073;52.740;6.784;2023-08-01T10:47:47;17.00;99.90
59301;DHT22;45073;52.740;6.784;2023-08-01T10:50:14;16.90;99.90
59301;DHT22;45073;52.740;6.784;2023-08-01T10:52:41;17.00;99.90
59301;DHT22;45073;52.740;6.784;2023-08-01T10:55:07;17.00;99.90
59301;DHT22;45073;52.740;6.784;2023-08-01T10:57:35;17.20;99.90
59301;DHT22;45073;52.740;6.784;2023-08-01T11:00:02;17.30;99.90
59301;DHT22;45073;52.740;6.784;2023-08-01T11:02:30;17.50;99.90
59301;DHT22;45073;52.740;6.784;2023-08-01T11:05:03;17.70;99.90
59301;DHT22;45073;52.740;6.784;2023-08-01T11:07:29;17.80;99.90
59301;DHT22;45073;52.740;6.784;2023-08-01T11:10:09;17.80;99.90
59301;DHT22;45073;52.740;6.784;2023-08-01T11:12:40;17.80;99.90
59301;DHT22;45073;52.740;6.784;2023-08-01T11:15:08;17.70;99.90
59301;DHT22;45073;52.740;6.784;2023-08-01T11:17:50;17.50;99.90
59301;DHT22;45073;52.740;6.784;2023-08-01T11:20:17;17.40;99.90
59301;DHT22;45073;52.740;6.784;2023-08-01T11:22:58;17.30;99.90
59301;DHT22;45073;52.740;6.784;2023-08-01T11:25:36;17.20;99.90
59301;DHT22;45073;52.740;6.784;2023-08-01T11:28:11;17.00;99.90
59301;DHT22;45073;52.740;6.784;2023-08-01T11:30:37;16.90;99.90
59301;DHT22;45073;52.740;6.784;2023-08-01T11:33:13;16.90;99.90
59301;DHT22;45073;52.740;6.784;2023-08-01T11:35:40;16.90;99.90
59301;DHT22;45073;52.740;6.784;2023-08-01T11:38:06;16.90;99.90
59301;DHT22;45073;52.740;6.784;2023-08-01T11:40:32;16.90;99.90
59301;DHT22;45073;52.740;6.784;2023-08-01T11:42:58;17.10;99.90
59301;DHT22;45073;52.740;6.784;2023-08-01T11:45:24;17.30;99.90
59301;DHT22;45073;52.740;6.784;2023-08-01T11:47:49;17.40;99.90
59301;DHT22;45073;52.740;6.784;2023-08-01T11:50:22;17.70;99.90
59301;DHT22;45073;52.740;6.784;2023-08-01T11:52:51;17.90;99.90
59301;DHT22;45073;52.740;6.784;2023-08-01T11:55:26;18.00;99.90
59301;DHT22;45073;52.740;6.784;2023-08-01T11:57:57;18.00;99.90
59301;DHT22;45073;52.740;6.784;2023-08-01T12:00:27;18.00;99.90
59301;DHT22;45073;52.740;6.784;2023-08-01T12:03:04;18.00;99.90
59301;DHT22;45073;52.740;6.784;2023-08-01T12:05:30;18.10;99.90
59301;DHT22;45073;52.740;6.784;2023-08-01T12:07:56;18.20;99.90
59301;DHT22;45073;52.740;6.784;2023-08-01T12:10:21;18.30;99.90
59301;DHT22;45073;52.740;6.784;2023-08-01T12:12:48;18.40;99.90
59301;DHT22;45073;52.740;6.784;2023-08-01T12:15:14;18.70;99.90
59301;DHT22;45073;52.740;6.784;2023-08-01T12:17:40;19.00;99.90
59301;DHT22;45073;52.740;6.784;2023-08-01T12:20:07;19.10;99.90
59301;DHT22;45073;52.740;6.784;2023-08-01T12:22:33;19.00;99.90
59301;DHT22;45073;52.740;6.784;2023-08-01T12:24:58;18.90;99.90
59301;DHT22;45073;52.740;6.784;2023-08-01T12:27:24;18.70;99.90
59301;DHT22;45073;52.740;6.784;2023-08-01T12:29:49;18.70;99.90
59301;DHT22;45073;52.740;6.784;2023-08-01T12:32:15;18.50;99.90
59301;DHT22;45073;52.740;6.784;2023-08-01T12:34:41;18.40;99.90
59301;DHT22;45073;52.740;6.784;2023-08-01T12:37:06;18.30;99.90
59301;DHT22;45073;52.740;6.784;2023-08-01T12:39:32;18.30;99.90
59301;DHT22;45073;52.740;6.784;2023-08-01T12:41:57;18.20;99.90
59301;DHT22;45073;52.740;6.784;2023-08-01T12:44:23;18.20;99.90
59301;DHT22;45073;52.740;6.784;2023-08-01T12:46:48;18.30;99.90
59301;DHT22;45073;52.740;6.784;2023-08-01T12:49:14;18.60;99.90
59301;DHT22;45073;52.740;6.784;2023-08-01T12:51:40;18.80;99.90
59301;DHT22;45073;52.740;6.784;2023-08-01T12:54:05;19.20;99.90
59301;DHT22;45073;52.740;6.784;2023-08-01T12:56:31;19.30;99.90
59301;DHT22;45073;52.740;6.784;2023-08-01T12:58:57;19.30;99.90
59301;DHT22;45073;52.740;6.784;2023-08-01T13:01:23;19.20;99.90
59301;DHT22;45073;52.740;6.784;2023-08-01T13:03:48;19.00;99.90
59301;DHT22;45073;52.740;6.784;2023-08-01T13:06:14;18.90;99.90
59301;DHT22;45073;52.740;6.784;2023-08-01T13:08:39;18.90;99.90
59301;DHT22;45073;52.740;6.784;2023-08-01T13:11:12;19.10;99.90
59301;DHT22;45073;52.740;6.784;2023-08-01T13:13:40;19.40;99.90
59301;DHT22;45073;52.740;6.784;2023-08-01T13:16:06;19.80;99.90
59301;DHT22;45073;52.740;6.784;2023-08-01T13:18:31;20.00;99.90
59301;DHT22;45073;52.740;6.784;2023-08-01T13:20:57;20.10;99.90
59301;DHT22;45073;52.740;6.784;2023-08-01T13:23:25;20.00;99.90
59301;DHT22;45073;52.740;6.784;2023-08-01T13:25:51;20.10;99.90
59301;DHT22;45073;52.740;6.784;2023-08-01T13:28:16;20.30;99.90
59301;DHT22;45073;52.740;6.784;2023-08-01T13:30:42;20.10;99.90
59301;DHT22;45073;52.740;6.784;2023-08-01T13:33:07;20.00;99.90
59301;DHT22;45073;52.740;6.784;2023-08-01T13:35:33;20.00;99.90
59301;DHT22;45073;52.740;6.784;2023-08-01T13:37:59;20.20;99.90
59301;DHT22;45073;52.740;6.784;2023-08-01T13:40:25;20.40;99.90
59301;DHT22;45073;52.740;6.784;2023-08-01T13:42:51;20.20;99.90
59301;DHT22;45073;52.740;6.784;2023-08-01T13:45:17;20.00;99.90
59301;DHT22;45073;52.740;6.784;2023-08-01T13:47:42;19.90;99.90
59301;DHT22;45073;52.740;6.784;2023-08-01T13:50:08;19.80;99.90
59301;DHT22;45073;52.740;6.784;2023-08-01T13:52:37;19.80;99.90
59301;DHT22;45073;52.740;6.784;2023-08-01T13:55:03;19.80;99.90
59301;DHT22;45073;52.740;6.784;2023-08-01T13:57:30;19.80;99.90
59301;DHT22;45073;52.740;6.784;2023-08-01T13:59:56;19.70;99.90
59301;DHT22;45073;52.740;6.784;2023-08-01T14:02:21;19.70;99.90
59301;DHT22;45073;52.740;6.784;2023-08-01T14:04:51;19.60;99.90
59301;DHT22;45073;52.740;6.784;2023-08-01T14:07:16;19.50;99.90
59301;DHT22;45073;52.740;6.784;2023-08-01T14:09:42;19.40;99.90
59301;DHT22;45073;52.740;6.784;2023-08-01T14:12:08;19.20;99.90
59301;DHT22;45073;52.740;6.784;2023-08-01T14:14:33;18.90;99.90
59301;DHT22;45073;52.740;6.784;2023-08-01T14:16:59;18.70;99.90
59301;DHT22;45073;52.740;6.784;2023-08-01T14:19:24;18.60;99.90
59301;DHT22;45073;52.740;6.784;2023-08-01T14:21:55;18.40;99.90
59301;DHT22;45073;52.740;6.784;2023-08-01T14:24:21;18.30;99.90
59301;DHT22;45073;52.740;6.784;2023-08-01T14:26:47;18.30;99.90
59301;DHT22;45073;52.740;6.784;2023-08-01T14:29:12;18.30;99.90
59301;DHT22;45073;52.740;6.784;2023-08-01T14:31:38;18.50;99.90
59301;DHT22;45073;52.740;6.784;2023-08-01T14:34:04;18.70;99.90
59301;DHT22;45073;52.740;6.784;2023-08-01T14:36:29;18.90;99.90
59301;DHT22;45073;52.740;6.784;2023-08-01T14:38:55;19.00;99.90
59301;DHT22;45073;52.740;6.784;2023-08-01T14:41:22;19.00;99.90
59301;DHT22;45073;52.740;6.784;2023-08-01T14:43:48;19.10;99.90
59301;DHT22;45073;52.740;6.784;2023-08-01T14:46:13;19.40;99.90
59301;DHT22;45073;52.740;6.784;2023-08-01T14:48:39;19.60;99.90
59301;DHT22;45073;52.740;6.784;2023-08-01T14:51:08;19.70;99.90
59301;DHT22;45073;52.740;6.784;2023-08-01T14:53:34;19.70;99.90
59301;DHT22;45073;52.740;6.784;2023-08-01T14:56:00;19.60;99.90
59301;DHT22;45073;52.740;6.784;2023-08-01T14:58:28;19.60;99.90
59301;DHT22;45073;52.740;6.784;2023-08-01T15:00:53;19.60;99.90
59301;DHT22;45073;52.740;6.784;2023-08-01T15:03:19;19.70;99.90
59301;DHT22;45073;52.740;6.784;2023-08-01T15:05:44;19.70;99.90
59301;DHT22;45073;52.740;6.784;2023-08-01T15:08:10;19.60;99.90
59301;DHT22;45073;52.740;6.784;2023-08-01T15:10:39;19.50;99.90
59301;DHT22;45073;52.740;6.784;2023-08-01T15:13:04;19.50;99.90
59301;DHT22;45073;52.740;6.784;2023-08-01T15:15:35;19.50;99.90
59301;DHT22;45073;52.740;6.784;2023-08-01T15:18:01;19.40;99.90
59301;DHT22;45073;52.740;6.784;2023-08-01T15:20:27;19.40;99.90
59301;DHT22;45073;52.740;6.784;2023-08-01T15:22:52;19.30;99.90
59301;DHT22;45073;52.740;6.784;2023-08-01T15:25:18;19.30;99.90
59301;DHT22;45073;52.740;6.784;2023-08-01T15:27:43;19.50;99.90
59301;DHT22;45073;52.740;6.784;2023-08-01T15:30:09;19.50;99.90
59301;DHT22;45073;52.740;6.784;2023-08-01T15:32:35;19.50;99.90